sensor_id;sensor_type;location;lat;lon;timestamp;pressure;altitude;pressure_sealevel;temperature;humidity
50105;BME280;47690;39.202;-77.198;2023-04-29T00:01:57;99468.59;;;40.30;14.11
50105;BME280;47690;39.202;-77.198;2023-04-29T00:04:27;99464.97;;;40.36;13.94
50105;BME280;47690;39.202;-77.198;2023-04-29T00:06:56;99463.00;;;40.90;13.30
50105;BME280;47690;39.202;-77.198;2023-04-29T00:09:26;99471.09;;;41.41;12.99
50105;BME280;47690;39.202;-77.198;2023-04-29T00:11:55;99465.38;;;40.86;13.45
50105;BME280;47690;39.202;-77.198;2023-04-29T00:14:24;99473.13;;;40.82;13.44
50105;BME280;47690;39.202;-77.198;2023-04-29T00:16:53;99475.66;;;40.60;13.83
50105;BME280;47690;39.202;-77.198;2023-04-29T00:19:22;99482.91;;;40.72;13.36
50105;BME280;47690;39.202;-77.198;2023-04-29T00:21:51;99494.22;;;40.56;13.81
50105;BME280;47690;39.202;-77.198;2023-04-29T00:24:23;99482.34;;;40.28;14.10
50105;BME280;47690;39.202;-77.198;2023-04-29T00:26:53;99488.38;;;40.07;14.05
50105;BME280;47690;39.202;-77.198;2023-04-29T00:29:23;99483.53;;;40.21;14.27
50105;BME280;47690;39.202;-77.198;2023-04-29T00:31:53;99479.63;;;40.69;13.34
50105;BME280;47690;39.202;-77.198;2023-04-29T00:34:22;99480.50;;;40.58;13.58
50105;BME280;47690;39.202;-77.198;2023-04-29T00:36:51;99471.53;;;40.99;13.10
50105;BME280;47690;39.202;-77.198;2023-04-29T00:39:20;99470.47;;;41.17;13.60
50105;BME280;47690;39.202;-77.198;2023-04-29T00:41:49;99472.31;;;40.82;13.27
50105;BME280;47690;39.202;-77.198;2023-04-29T00:44:20;99471.88;;;40.73;13.90
50105;BME280;47690;39.202;-77.198;2023-04-29T00:46:49;99462.78;;;40.62;13.81
50105;BME280;47690;39.202;-77.198;2023-04-29T00:49:18;99466.75;;;40.60;13.86
50105;BME280;47690;39.202;-77.198;2023-04-29T00:51:47;99468.56;;;40.54;13.65
50105;BME280;47690;39.202;-77.198;2023-04-29T00:54:16;99467.22;;;40.56;13.81
50105;BME280;47690;39.202;-77.198;2023-04-29T00:56:46;99474.28;;;40.58;13.59
50105;BME280;47690;39.202;-77.198;2023-04-29T00:59:15;99474.25;;;40.40;13.80
50105;BME280;47690;39.202;-77.198;2023-04-29T01:01:45;99466.19;;;40.87;13.45
50105;BME280;47690;39.202;-77.198;2023-04-29T01:04:15;99470.19;;;40.55;13.76
50105;BME280;47690;39.202;-77.198;2023-04-29T01:10:13;99468.34;;;41.36;13.18
50105;BME280;47690;39.202;-77.198;2023-04-29T01:12:53;99465.81;;;41.12;13.88
50105;BME280;47690;39.202;-77.198;2023-04-29T01:20:37;99466.88;;;41.85;12.92
50105;BME280;47690;39.202;-77.198;2023-04-29T01:23:07;99469.81;;;41.09;13.67
50105;BME280;47690;39.202;-77.198;2023-04-29T01:25:38;99466.19;;;41.04;13.67
50105;BME280;47690;39.202;-77.198;2023-04-29T01:31:30;99452.47;;;41.79;13.30
50105;BME280;47690;39.202;-77.198;2023-04-29T01:34:43;99448.78;;;42.30;12.71
50105;BME280;47690;39.202;-77.198;2023-04-29T01:37:48;99461.09;;;42.43;12.77
50105;BME280;47690;39.202;-77.198;2023-04-29T01:40:42;99470.94;;;41.65;13.33
50105;BME280;47690;39.202;-77.198;2023-04-29T01:43:24;99457.28;;;41.20;13.82
50105;BME280;47690;39.202;-77.198;2023-04-29T01:45:56;99459.16;;;41.20;13.37
50105;BME280;47690;39.202;-77.198;2023-04-29T01:48:27;99458.63;;;41.35;13.45
50105;BME280;47690;39.202;-77.198;2023-04-29T01:50:56;99459.00;;;41.27;13.51
50105;BME280;47690;39.202;-77.198;2023-04-29T01:53:25;99458.34;;;41.19;13.40
50105;BME280;47690;39.202;-77.198;2023-04-29T01:55:55;99462.28;;;41.12;13.84
50105;BME280;47690;39.202;-77.198;2023-04-29T01:58:35;99458.25;;;41.14;13.94
50105;BME280;47690;39.202;-77.198;2023-04-29T02:01:25;99448.44;;;41.42;13.42
50105;BME280;47690;39.202;-77.198;2023-04-29T02:03:54;99449.75;;;41.40;13.47
50105;BME280;47690;39.202;-77.198;2023-04-29T02:06:24;99455.91;;;41.35;13.38
50105;BME280;47690;39.202;-77.198;2023-04-29T02:08:58;99445.94;;;41.97;12.97
50105;BME280;47690;39.202;-77.198;2023-04-29T02:11:27;99441.59;;;42.18;12.79
50105;BME280;47690;39.202;-77.198;2023-04-29T02:13:57;99453.94;;;42.09;12.99
50105;BME280;47690;39.202;-77.198;2023-04-29T02:16:26;99460.06;;;41.43;13.42
50105;BME280;47690;39.202;-77.198;2023-04-29T02:18:58;99456.38;;;41.32;13.32
50105;BME280;47690;39.202;-77.198;2023-04-29T02:21:27;99455.91;;;41.35;13.87
50105;BME280;47690;39.202;-77.198;2023-04-29T02:23:56;99453.44;;;41.33;13.42
50105;BME280;47690;39.202;-77.198;2023-04-29T02:26:25;99465.47;;;41.43;13.73
50105;BME280;47690;39.202;-77.198;2023-04-29T02:28:55;99463.31;;;42.01;13.37
50105;BME280;47690;39.202;-77.198;2023-04-29T02:31:25;99455.66;;;41.36;13.88
50105;BME280;47690;39.202;-77.198;2023-04-29T02:33:54;99460.38;;;41.46;13.49
50105;BME280;47690;39.202;-77.198;2023-04-29T02:36:23;99466.41;;;42.10;13.11
50105;BME280;47690;39.202;-77.198;2023-04-29T02:38:52;99463.88;;;42.26;12.85
50105;BME280;47690;39.202;-77.198;2023-04-29T02:41:23;99459.97;;;41.72;13.50
50105;BME280;47690;39.202;-77.198;2023-04-29T02:43:53;99462.50;;;41.61;13.62
50105;BME280;47690;39.202;-77.198;2023-04-29T02:46:22;99467.63;;;41.80;13.21
50105;BME280;47690;39.202;-77.198;2023-04-29T02:48:53;99455.81;;;41.86;13.66
50105;BME280;47690;39.202;-77.198;2023-04-29T02:51:22;99457.88;;;42.46;13.06
50105;BME280;47690;39.202;-77.198;2023-04-29T02:53:51;99461.81;;;42.11;13.21
50105;BME280;47690;39.202;-77.198;2023-04-29T02:56:21;99461.94;;;41.99;13.11
50105;BME280;47690;39.202;-77.198;2023-04-29T02:58:50;99459.75;;;42.18;13.48
50105;BME280;47690;39.202;-77.198;2023-04-29T03:01:19;99456.53;;;42.21;13.25
50105;BME280;47690;39.202;-77.198;2023-04-29T03:03:49;99451.47;;;42.80;12.84
50105;BME280;47690;39.202;-77.198;2023-04-29T03:06:19;99458.34;;;42.38;13.17
50105;BME280;47690;39.202;-77.198;2023-04-29T03:08:50;99443.13;;;42.31;13.35
50105;BME280;47690;39.202;-77.198;2023-04-29T03:11:20;99451.84;;;42.94;12.66
50105;BME280;47690;39.202;-77.198;2023-04-29T03:13:51;99462.16;;;42.64;12.73
50105;BME280;47690;39.202;-77.198;2023-04-29T03:16:21;99445.97;;;43.02;12.75
50105;BME280;47690;39.202;-77.198;2023-04-29T03:18:50;99455.97;;;42.69;13.25
50105;BME280;47690;39.202;-77.198;2023-04-29T03:21:19;99451.59;;;42.40;13.17
50105;BME280;47690;39.202;-77.198;2023-04-29T03:23:48;99463.88;;;42.26;13.22
50105;BME280;47690;39.202;-77.198;2023-04-29T03:26:23;99452.25;;;42.25;13.13
50105;BME280;47690;39.202;-77.198;2023-04-29T03:28:53;99444.75;;;42.32;13.38
50105;BME280;47690;39.202;-77.198;2023-04-29T03:31:22;99443.84;;;43.04;12.73
50105;BME280;47690;39.202;-77.198;2023-04-29T03:33:51;99443.81;;;42.71;12.88
50105;BME280;47690;39.202;-77.198;2023-04-29T03:36:22;99440.19;;;42.38;13.04
50105;BME280;47690;39.202;-77.198;2023-04-29T03:39:17;99449.41;;;42.65;13.13
50105;BME280;47690;39.202;-77.198;2023-04-29T03:41:46;99447.38;;;42.50;13.27
50105;BME280;47690;39.202;-77.198;2023-04-29T03:44:15;99449.53;;;42.25;13.23
50105;BME280;47690;39.202;-77.198;2023-04-29T03:46:45;99441.75;;;42.29;13.51
50105;BME280;47690;39.202;-77.198;2023-04-29T03:49:14;99426.91;;;42.37;13.45
50105;BME280;47690;39.202;-77.198;2023-04-29T03:51:43;99424.16;;;42.86;12.97
50105;BME280;47690;39.202;-77.198;2023-04-29T03:54:16;99418.25;;;42.62;13.10
50105;BME280;47690;39.202;-77.198;2023-04-29T03:56:46;99408.63;;;43.09;12.61
50105;BME280;47690;39.202;-77.198;2023-04-29T03:59:15;99405.59;;;43.38;12.58
50105;BME280;47690;39.202;-77.198;2023-04-29T04:01:45;99411.19;;;43.26;12.74
50105;BME280;47690;39.202;-77.198;2023-04-29T04:04:14;99409.81;;;43.24;12.68
50105;BME280;47690;39.202;-77.198;2023-04-29T04:06:46;99412.22;;;43.15;12.76
50105;BME280;47690;39.202;-77.198;2023-04-29T04:09:23;99413.59;;;42.52;13.03
50105;BME280;47690;39.202;-77.198;2023-04-29T04:11:51;99416.53;;;42.51;13.21
50105;BME280;47690;39.202;-77.198;2023-04-29T04:14:21;99418.78;;;42.31;13.46
50105;BME280;47690;39.202;-77.198;2023-04-29T04:16:50;99420.59;;;42.26;13.60
50105;BME280;47690;39.202;-77.198;2023-04-29T04:19:19;99415.44;;;42.24;13.37
50105;BME280;47690;39.202;-77.198;2023-04-29T04:21:48;99410.34;;;42.28;13.19
50105;BME280;47690;39.202;-77.198;2023-04-29T04:24:18;99405.25;;;42.31;13.40
50105;BME280;47690;39.202;-77.198;2023-04-29T04:26:47;99401.06;;;42.51;13.17
50105;BME280;47690;39.202;-77.198;2023-04-29T04:29:21;99405.31;;;42.97;12.96
50105;BME280;47690;39.202;-77.198;2023-04-29T04:31:58;99399.13;;;42.69;12.96
50105;BME280;47690;39.202;-77.198;2023-04-29T04:34:27;99388.00;;;42.65;13.19
50105;BME280;47690;39.202;-77.198;2023-04-29T04:36:59;99390.63;;;42.60;13.05
50105;BME280;47690;39.202;-77.198;2023-04-29T04:39:29;99398.91;;;42.48;13.01
50105;BME280;47690;39.202;-77.198;2023-04-29T04:41:58;99384.75;;;42.41;13.37
50105;BME280;47690;39.202;-77.198;2023-04-29T04:44:29;99374.16;;;42.67;13.19
50105;BME280;47690;39.202;-77.198;2023-04-29T04:47:06;99384.00;;;42.45;13.31
50105;BME280;47690;39.202;-77.198;2023-04-29T04:49:58;99369.50;;;42.57;13.29
50105;BME280;47690;39.202;-77.198;2023-04-29T04:52:27;99371.09;;;42.53;13.15
50105;BME280;47690;39.202;-77.198;2023-04-29T04:55:03;99358.94;;;42.55;13.21
50105;BME280;47690;39.202;-77.198;2023-04-29T04:57:35;99348.31;;;42.49;13.13
50105;BME280;47690;39.202;-77.198;2023-04-29T05:00:04;99357.44;;;42.42;13.32
50105;BME280;47690;39.202;-77.198;2023-04-29T05:02:34;99362.03;;;42.42;13.26
50105;BME280;47690;39.202;-77.198;2023-04-29T05:05:05;99363.94;;;42.41;13.27
50105;BME280;47690;39.202;-77.198;2023-04-29T05:07:35;99363.94;;;42.41;13.45
50105;BME280;47690;39.202;-77.198;2023-04-29T05:10:05;99352.03;;;42.42;13.31
50105;BME280;47690;39.202;-77.198;2023-04-29T05:12:44;99345.31;;;42.50;13.45
50105;BME280;47690;39.202;-77.198;2023-04-29T05:15:14;99346.09;;;42.45;13.38
50105;BME280;47690;39.202;-77.198;2023-04-29T05:17:45;99345.72;;;42.31;13.33
50105;BME280;47690;39.202;-77.198;2023-04-29T05:20:14;99353.88;;;42.37;13.62
50105;BME280;47690;39.202;-77.198;2023-04-29T05:22:43;99354.41;;;42.34;13.32
50105;BME280;47690;39.202;-77.198;2023-04-29T05:25:14;99356.28;;;42.33;13.45
50105;BME280;47690;39.202;-77.198;2023-04-29T05:27:44;99352.22;;;42.36;13.40
50105;BME280;47690;39.202;-77.198;2023-04-29T05:30:17;99348.97;;;42.34;13.63
50105;BME280;47690;39.202;-77.198;2023-04-29T05:32:47;99343.56;;;42.34;13.76
50105;BME280;47690;39.202;-77.198;2023-04-29T05:35:21;99345.50;;;42.38;13.52
50105;BME280;47690;39.202;-77.198;2023-04-29T05:37:49;99354.47;;;42.44;13.39
50105;BME280;47690;39.202;-77.198;2023-04-29T05:40:39;99355.44;;;42.60;13.32
50105;BME280;47690;39.202;-77.198;2023-04-29T05:43:31;99344.16;;;42.68;13.55
50105;BME280;47690;39.202;-77.198;2023-04-29T05:46:00;99345.16;;;42.57;13.58
50105;BME280;47690;39.202;-77.198;2023-04-29T05:48:31;99350.03;;;42.60;13.29
50105;BME280;47690;39.202;-77.198;2023-04-29T05:50:59;99343.53;;;42.61;13.19
50105;BME280;47690;39.202;-77.198;2023-04-29T05:53:29;99337.66;;;42.69;13.39
50105;BME280;47690;39.202;-77.198;2023-04-29T05:55:59;99352.56;;;42.72;13.05
50105;BME280;47690;39.202;-77.198;2023-04-29T05:58:31;99350.69;;;42.72;13.41
50105;BME280;47690;39.202;-77.198;2023-04-29T06:01:01;99341.38;;;43.44;12.71
50105;BME280;47690;39.202;-77.198;2023-04-29T06:03:31;99338.94;;;43.37;12.94
50105;BME280;47690;39.202;-77.198;2023-04-29T06:06:23;99337.63;;;43.45;12.75
50105;BME280;47690;39.202;-77.198;2023-04-29T06:09:03;99341.84;;;43.31;12.91
50105;BME280;47690;39.202;-77.198;2023-04-29T06:11:46;99346.28;;;42.99;12.75
50105;BME280;47690;39.202;-77.198;2023-04-29T06:14:15;99331.16;;;42.65;13.23
50105;BME280;47690;39.202;-77.198;2023-04-29T06:16:44;99336.06;;;43.11;13.00
50105;BME280;47690;39.202;-77.198;2023-04-29T06:19:14;99320.66;;;42.79;13.26
50105;BME280;47690;39.202;-77.198;2023-04-29T06:21:43;99321.69;;;42.68;13.18
50105;BME280;47690;39.202;-77.198;2023-04-29T06:24:13;99325.63;;;42.55;13.37
50105;BME280;47690;39.202;-77.198;2023-04-29T06:26:43;99326.72;;;42.54;13.46
50105;BME280;47690;39.202;-77.198;2023-04-29T06:29:11;99331.03;;;42.55;13.55
50105;BME280;47690;39.202;-77.198;2023-04-29T06:31:41;99329.38;;;42.49;13.33
50105;BME280;47690;39.202;-77.198;2023-04-29T06:34:11;99333.50;;;42.56;13.13
50105;BME280;47690;39.202;-77.198;2023-04-29T06:37:04;99347.69;;;42.69;13.19
50105;BME280;47690;39.202;-77.198;2023-04-29T06:39:59;99338.47;;;42.70;13.35
50105;BME280;47690;39.202;-77.198;2023-04-29T06:42:43;99341.38;;;42.58;13.11
50105;BME280;47690;39.202;-77.198;2023-04-29T06:45:31;99325.97;;;42.64;12.92
50105;BME280;47690;39.202;-77.198;2023-04-29T06:48:18;99324.09;;;42.64;13.15
50105;BME280;47690;39.202;-77.198;2023-04-29T06:50:55;99319.47;;;42.65;13.21
50105;BME280;47690;39.202;-77.198;2023-04-29T06:53:24;99317.38;;;42.72;13.06
50105;BME280;47690;39.202;-77.198;2023-04-29T06:55:53;99316.38;;;42.83;12.76
50105;BME280;47690;39.202;-77.198;2023-04-29T06:58:21;99319.47;;;42.65;13.34
50105;BME280;47690;39.202;-77.198;2023-04-29T07:00:50;99320.56;;;42.64;13.24
50105;BME280;47690;39.202;-77.198;2023-04-29T07:03:21;99321.84;;;42.56;13.23
50105;BME280;47690;39.202;-77.198;2023-04-29T07:05:51;99322.00;;;42.71;12.97
50105;BME280;47690;39.202;-77.198;2023-04-29T07:08:22;99320.81;;;42.62;13.46
50105;BME280;47690;39.202;-77.198;2023-04-29T07:10:56;99317.25;;;42.56;13.41
50105;BME280;47690;39.202;-77.198;2023-04-29T07:13:25;99325.09;;;42.53;13.37
50105;BME280;47690;39.202;-77.198;2023-04-29T07:15:54;99326.63;;;42.43;13.24
50105;BME280;47690;39.202;-77.198;2023-04-29T07:18:23;99328.00;;;42.46;13.69
50105;BME280;47690;39.202;-77.198;2023-04-29T07:20:52;99330.78;;;42.56;13.21
50105;BME280;47690;39.202;-77.198;2023-04-29T07:23:23;99335.81;;;42.48;13.20
50105;BME280;47690;39.202;-77.198;2023-04-29T07:25:51;99328.78;;;42.46;13.47
50105;BME280;47690;39.202;-77.198;2023-04-29T07:28:21;99335.09;;;42.52;13.55
50105;BME280;47690;39.202;-77.198;2023-04-29T07:30:52;99331.78;;;42.45;13.34
50105;BME280;47690;39.202;-77.198;2023-04-29T07:33:21;99325.19;;;43.06;13.01
50105;BME280;47690;39.202;-77.198;2023-04-29T07:35:51;99323.88;;;43.14;12.80
50105;BME280;47690;39.202;-77.198;2023-04-29T07:38:20;99309.25;;;43.10;12.87
50105;BME280;47690;39.202;-77.198;2023-04-29T07:40:49;99309.25;;;43.10;12.98
50105;BME280;47690;39.202;-77.198;2023-04-29T07:43:18;99315.16;;;43.07;13.18
50105;BME280;47690;39.202;-77.198;2023-04-29T07:45:47;99314.91;;;43.08;12.99
50105;BME280;47690;39.202;-77.198;2023-04-29T07:48:16;99317.47;;;42.82;13.09
50105;BME280;47690;39.202;-77.198;2023-04-29T07:50:46;99321.03;;;42.55;13.26
50105;BME280;47690;39.202;-77.198;2023-04-29T07:53:16;99307.09;;;42.74;13.24
50105;BME280;47690;39.202;-77.198;2023-04-29T07:55:45;99309.84;;;42.79;13.09
50105;BME280;47690;39.202;-77.198;2023-04-29T07:58:15;99321.28;;;42.54;13.42
50105;BME280;47690;39.202;-77.198;2023-04-29T08:00:45;99320.72;;;42.52;13.21
50105;BME280;47690;39.202;-77.198;2023-04-29T08:03:15;99326.50;;;42.33;13.50
50105;BME280;47690;39.202;-77.198;2023-04-29T08:05:43;99332.97;;;42.27;13.61
50105;BME280;47690;39.202;-77.198;2023-04-29T08:08:16;99339.19;;;42.27;13.45
50105;BME280;47690;39.202;-77.198;2023-04-29T08:10:45;99334.94;;;42.64;13.00
50105;BME280;47690;39.202;-77.198;2023-04-29T08:13:14;99332.03;;;42.76;13.20
50105;BME280;47690;39.202;-77.198;2023-04-29T08:15:45;99322.75;;;43.05;12.79
50105;BME280;47690;39.202;-77.198;2023-04-29T08:18:15;99329.09;;;42.50;13.25
50105;BME280;47690;39.202;-77.198;2023-04-29T08:20:53;99329.69;;;42.52;13.38
50105;BME280;47690;39.202;-77.198;2023-04-29T08:23:23;99323.19;;;42.26;13.25
50105;BME280;47690;39.202;-77.198;2023-04-29T08:25:52;99329.25;;;42.38;13.04
50105;BME280;47690;39.202;-77.198;2023-04-29T08:28:23;99332.41;;;42.52;13.15
50105;BME280;47690;39.202;-77.198;2023-04-29T08:30:58;99328.28;;;42.50;13.01
50105;BME280;47690;39.202;-77.198;2023-04-29T08:33:28;99328.25;;;42.77;12.93
50105;BME280;47690;39.202;-77.198;2023-04-29T08:35:58;99331.53;;;42.84;12.78
50105;BME280;47690;39.202;-77.198;2023-04-29T08:38:31;99332.19;;;42.97;12.88
50105;BME280;47690;39.202;-77.198;2023-04-29T08:41:00;99333.81;;;42.98;12.69
50105;BME280;47690;39.202;-77.198;2023-04-29T08:43:29;99336.09;;;42.46;13.07
50105;BME280;47690;39.202;-77.198;2023-04-29T08:45:59;99337.22;;;42.83;12.79
50105;BME280;47690;39.202;-77.198;2023-04-29T08:48:28;99326.38;;;42.50;13.13
50105;BME280;47690;39.202;-77.198;2023-04-29T08:50:57;99328.91;;;42.57;13.09
50105;BME280;47690;39.202;-77.198;2023-04-29T08:53:27;99330.75;;;42.24;13.33
50105;BME280;47690;39.202;-77.198;2023-04-29T08:56:01;99336.94;;;42.19;13.50
50105;BME280;47690;39.202;-77.198;2023-04-29T08:58:33;99361.53;;;42.17;13.38
50105;BME280;47690;39.202;-77.198;2023-04-29T09:01:07;99359.09;;;42.16;13.39
50105;BME280;47690;39.202;-77.198;2023-04-29T09:03:53;99355.97;;;42.29;13.25
50105;BME280;47690;39.202;-77.198;2023-04-29T09:06:24;99353.72;;;42.21;13.01
50105;BME280;47690;39.202;-77.198;2023-04-29T09:08:54;99354.19;;;42.13;13.44
50105;BME280;47690;39.202;-77.198;2023-04-29T09:11:26;99351.53;;;41.96;13.66
50105;BME280;47690;39.202;-77.198;2023-04-29T09:13:59;99351.75;;;41.89;13.47
50105;BME280;47690;39.202;-77.198;2023-04-29T09:16:37;99354.97;;;41.86;13.66
50105;BME280;47690;39.202;-77.198;2023-04-29T09:19:06;99349.81;;;41.84;13.33
50105;BME280;47690;39.202;-77.198;2023-04-29T09:21:36;99362.72;;;41.77;13.50
50105;BME280;47690;39.202;-77.198;2023-04-29T09:24:06;99366.22;;;41.77;13.29
50105;BME280;47690;39.202;-77.198;2023-04-29T09:26:42;99361.94;;;41.82;13.42
50105;BME280;47690;39.202;-77.198;2023-04-29T09:29:13;99358.94;;;41.78;13.43
50105;BME280;47690;39.202;-77.198;2023-04-29T09:31:44;99345.94;;;41.75;13.47
50105;BME280;47690;39.202;-77.198;2023-04-29T09:34:14;99353.84;;;41.82;13.65
50105;BME280;47690;39.202;-77.198;2023-04-29T09:39:37;99366.50;;;42.03;13.56
50105;BME280;47690;39.202;-77.198;2023-04-29T09:42:08;99376.34;;;41.87;13.50
50105;BME280;47690;39.202;-77.198;2023-04-29T09:44:40;99372.84;;;41.87;13.63
50105;BME280;47690;39.202;-77.198;2023-04-29T09:47:10;99370.84;;;42.04;13.07
50105;BME280;47690;39.202;-77.198;2023-04-29T09:49:42;99374.19;;;41.89;13.48
50105;BME280;47690;39.202;-77.198;2023-04-29T09:52:15;99388.00;;;41.93;13.11
50105;BME280;47690;39.202;-77.198;2023-04-29T09:54:45;99389.69;;;41.94;13.59
50105;BME280;47690;39.202;-77.198;2023-04-29T09:57:14;99389.16;;;41.97;13.05
50105;BME280;47690;39.202;-77.198;2023-04-29T09:59:43;99377.34;;;42.31;12.97
50105;BME280;47690;39.202;-77.198;2023-04-29T10:02:17;99378.41;;;42.02;13.06
50105;BME280;47690;39.202;-77.198;2023-04-29T10:04:53;99382.69;;;41.98;13.37
50105;BME280;47690;39.202;-77.198;2023-04-29T10:07:26;99375.72;;;41.80;13.44
50105;BME280;47690;39.202;-77.198;2023-04-29T10:09:56;99384.19;;;41.67;13.56
50105;BME280;47690;39.202;-77.198;2023-04-29T10:12:25;99398.44;;;41.62;13.37
50105;BME280;47690;39.202;-77.198;2023-04-29T10:15:02;99395.50;;;41.63;13.38
50105;BME280;47690;39.202;-77.198;2023-04-29T10:20:05;99410.22;;;41.73;13.31
50105;BME280;47690;39.202;-77.198;2023-04-29T10:22:44;99421.69;;;41.63;13.40
50105;BME280;47690;39.202;-77.198;2023-04-29T10:25:17;99411.53;;;41.70;13.35
50105;BME280;47690;39.202;-77.198;2023-04-29T10:27:47;99410.53;;;41.76;13.41
50105;BME280;47690;39.202;-77.198;2023-04-29T10:30:17;99415.50;;;41.85;13.47
50105;BME280;47690;39.202;-77.198;2023-04-29T10:32:47;99418.78;;;41.87;13.16
50105;BME280;47690;39.202;-77.198;2023-04-29T10:35:20;99409.47;;;41.77;13.53
50105;BME280;47690;39.202;-77.198;2023-04-29T10:37:53;99411.47;;;41.65;13.25
50105;BME280;47690;39.202;-77.198;2023-04-29T10:40:29;99418.59;;;41.71;13.15
50105;BME280;47690;39.202;-77.198;2023-04-29T10:42:59;99416.47;;;41.73;13.33
50105;BME280;47690;39.202;-77.198;2023-04-29T10:45:29;99415.56;;;41.90;13.14
50105;BME280;47690;39.202;-77.198;2023-04-29T10:53:19;99413.81;;;42.01;13.15
50105;BME280;47690;39.202;-77.198;2023-04-29T10:55:57;99417.06;;;42.03;13.19
50105;BME280;47690;39.202;-77.198;2023-04-29T11:01:05;99429.47;;;41.99;13.35
50105;BME280;47690;39.202;-77.198;2023-04-29T11:03:57;99438.66;;;42.20;13.07
50105;BME280;47690;39.202;-77.198;2023-04-29T11:09:20;99447.09;;;42.24;13.06
50105;BME280;47690;39.202;-77.198;2023-04-29T11:14:36;99461.59;;;42.12;13.08
50105;BME280;47690;39.202;-77.198;2023-04-29T11:17:15;99466.06;;;42.07;13.00
50105;BME280;47690;39.202;-77.198;2023-04-29T11:19:51;99473.50;;;41.94;13.22
50105;BME280;47690;39.202;-77.198;2023-04-29T11:22:39;99468.41;;;42.70;12.82
50105;BME280;47690;39.202;-77.198;2023-04-29T11:25:08;99474.84;;;41.97;13.41
50105;BME280;47690;39.202;-77.198;2023-04-29T11:27:39;99472.47;;;41.78;13.42
50105;BME280;47690;39.202;-77.198;2023-04-29T11:30:10;99471.72;;;41.83;13.60
50105;BME280;47690;39.202;-77.198;2023-04-29T11:32:41;99486.25;;;41.99;13.29
50105;BME280;47690;39.202;-77.198;2023-04-29T11:35:17;99482.16;;;42.13;13.24
50105;BME280;47690;39.202;-77.198;2023-04-29T11:37:49;99482.28;;;42.07;13.34
50105;BME280;47690;39.202;-77.198;2023-04-29T11:40:18;99487.06;;;41.99;13.38
50105;BME280;47690;39.202;-77.198;2023-04-29T11:42:49;99485.69;;;41.97;13.35
50105;BME280;47690;39.202;-77.198;2023-04-29T11:45:19;99486.63;;;42.08;13.21
50105;BME280;47690;39.202;-77.198;2023-04-29T11:47:48;99484.44;;;42.04;13.10
50105;BME280;47690;39.202;-77.198;2023-04-29T11:50:20;99483.13;;;42.79;13.17
50105;BME280;47690;39.202;-77.198;2023-04-29T11:52:49;99479.53;;;43.01;12.74
50105;BME280;47690;39.202;-77.198;2023-04-29T11:55:21;99488.97;;;42.43;13.21
50105;BME280;47690;39.202;-77.198;2023-04-29T11:57:49;99489.59;;;42.28;13.22
50105;BME280;47690;39.202;-77.198;2023-04-29T12:00:19;99492.81;;;42.25;13.29
50105;BME280;47690;39.202;-77.198;2023-04-29T12:02:48;99486.56;;;42.20;13.46
50105;BME280;47690;39.202;-77.198;2023-04-29T12:05:18;99488.34;;;42.14;13.55
50105;BME280;47690;39.202;-77.198;2023-04-29T12:07:48;99479.69;;;42.34;13.33
50105;BME280;47690;39.202;-77.198;2023-04-29T12:10:18;99471.13;;;42.48;13.54
50105;BME280;47690;39.202;-77.198;2023-04-29T12:12:48;99478.78;;;42.28;13.31
50105;BME280;47690;39.202;-77.198;2023-04-29T12:15:17;99477.53;;;42.36;13.40
50105;BME280;47690;39.202;-77.198;2023-04-29T12:17:47;99448.91;;;42.95;12.88
50105;BME280;47690;39.202;-77.198;2023-04-29T12:20:17;99462.72;;;43.32;12.73
50105;BME280;47690;39.202;-77.198;2023-04-29T12:22:46;99466.19;;;43.27;12.60
50105;BME280;47690;39.202;-77.198;2023-04-29T12:25:15;99471.88;;;43.25;12.73
50105;BME280;47690;39.202;-77.198;2023-04-29T12:27:45;99479.16;;;42.92;12.96
50105;BME280;47690;39.202;-77.198;2023-04-29T12:30:16;99484.84;;;42.63;13.17
50105;BME280;47690;39.202;-77.198;2023-04-29T12:32:45;99499.56;;;42.45;13.38
50105;BME280;47690;39.202;-77.198;2023-04-29T12:35:16;99500.59;;;42.44;13.34
50105;BME280;47690;39.202;-77.198;2023-04-29T12:37:49;99485.25;;;43.05;13.01
50105;BME280;47690;39.202;-77.198;2023-04-29T12:40:18;99485.31;;;42.55;13.35
50105;BME280;47690;39.202;-77.198;2023-04-29T12:42:48;99489.38;;;42.52;13.36
50105;BME280;47690;39.202;-77.198;2023-04-29T12:45:31;99483.06;;;42.74;13.20
50105;BME280;47690;39.202;-77.198;2023-04-29T12:48:02;99479.00;;;43.37;12.77
50105;BME280;47690;39.202;-77.198;2023-04-29T12:50:41;99473.50;;;43.26;12.89
50105;BME280;47690;39.202;-77.198;2023-04-29T12:53:11;99458.28;;;42.88;13.14
50105;BME280;47690;39.202;-77.198;2023-04-29T12:55:41;99460.69;;;42.84;13.51
50105;BME280;47690;39.202;-77.198;2023-04-29T12:58:10;99460.69;;;42.84;13.03
50105;BME280;47690;39.202;-77.198;2023-04-29T13:00:40;99452.72;;;42.72;13.53
50105;BME280;47690;39.202;-77.198;2023-04-29T13:03:09;99444.31;;;42.68;13.37
50105;BME280;47690;39.202;-77.198;2023-04-29T13:05:38;99459.88;;;42.83;13.33
50105;BME280;47690;39.202;-77.198;2023-04-29T13:08:08;99458.03;;;42.89;13.43
50105;BME280;47690;39.202;-77.198;2023-04-29T13:10:42;99457.06;;;44.71;12.34
50105;BME280;47690;39.202;-77.198;2023-04-29T13:13:12;99475.38;;;43.64;12.91
50105;BME280;47690;39.202;-77.198;2023-04-29T13:15:41;99490.44;;;43.39;12.99
50105;BME280;47690;39.202;-77.198;2023-04-29T13:18:11;99513.91;;;43.33;12.94
50105;BME280;47690;39.202;-77.198;2023-04-29T13:20:41;99527.44;;;43.28;13.34
50105;BME280;47690;39.202;-77.198;2023-04-29T13:23:11;99523.34;;;43.25;13.01
50105;BME280;47690;39.202;-77.198;2023-04-29T13:25:40;99499.50;;;43.27;13.04
50105;BME280;47690;39.202;-77.198;2023-04-29T13:28:09;99488.19;;;43.36;13.00
50105;BME280;47690;39.202;-77.198;2023-04-29T13:30:39;99511.28;;;43.38;13.02
50105;BME280;47690;39.202;-77.198;2023-04-29T13:33:11;99516.22;;;43.47;12.99
50105;BME280;47690;39.202;-77.198;2023-04-29T13:35:41;99500.28;;;43.56;12.80